Terminal Aerodrome Forecast
Issued by NWS

Home | Current Version | Previous Version | Text Only | Print | Product List | Glossary On
Versions: 1 2 3 4 5 6 7 8 9 10 11 12 13 14 15 16 17 18 19 20 21 22 23 24 25
000
FTUS43 KDLH 022300 RRA
TAFBRD
TAF
KBRD 022343Z 0300/0324 18014KT P6SM BKN090
     FM030400 19014KT P6SM VCSH SCT030 OVC060
     FM030800 18014G20KT 1SM -SN SCT012 OVC025
     FM031200 23008KT 1/2SM SN OVC008
     FM031800 30014G25KT 5SM -SN BLSN OVC025
     FM032100 32018G28KT 6SM BLSN OVC030=

USA.gov is the U.S. government's official web portal to all federal, state and local government web resources and services.